sensor_id;sensor_type;location;lat;lon;timestamp;temperature;humidity
54832;DHT22;40730;53.068;6.572;2022-12-24T00:00:05;6.70;99.90
54832;DHT22;40730;53.068;6.572;2022-12-24T00:02:30;6.70;99.90
54832;DHT22;40730;53.068;6.572;2022-12-24T00:04:56;6.70;99.90
54832;DHT22;40730;53.068;6.572;2022-12-24T00:07:21;6.70;99.90
54832;DHT22;40730;53.068;6.572;2022-12-24T00:09:47;6.70;99.90
54832;DHT22;40730;53.068;6.572;2022-12-24T00:12:13;6.60;99.90
54832;DHT22;40730;53.068;6.572;2022-12-24T00:14:38;6.70;99.90
54832;DHT22;40730;53.068;6.572;2022-12-24T00:17:04;6.70;99.90
54832;DHT22;40730;53.068;6.572;2022-12-24T00:19:29;6.60;99.90
54832;DHT22;40730;53.068;6.572;2022-12-24T00:21:55;6.70;99.90
54832;DHT22;40730;53.068;6.572;2022-12-24T00:24:20;6.70;99.90
54832;DHT22;40730;53.068;6.572;2022-12-24T00:26:46;6.70;99.90
54832;DHT22;40730;53.068;6.572;2022-12-24T00:29:11;6.70;99.90
54832;DHT22;40730;53.068;6.572;2022-12-24T00:31:37;6.70;99.90
54832;DHT22;40730;53.068;6.572;2022-12-24T00:34:03;6.70;99.90
54832;DHT22;40730;53.068;6.572;2022-12-24T00:36:28;6.70;99.90
54832;DHT22;40730;53.068;6.572;2022-12-24T00:38:54;6.70;99.90
54832;DHT22;40730;53.068;6.572;2022-12-24T00:41:19;7.00;99.90
54832;DHT22;40730;53.068;6.572;2022-12-24T00:44:02;6.70;99.90
54832;DHT22;40730;53.068;6.572;2022-12-24T00:46:31;6.70;99.90
54832;DHT22;40730;53.068;6.572;2022-12-24T00:48:57;6.60;99.90
54832;DHT22;40730;53.068;6.572;2022-12-24T00:51:24;6.70;99.90
54832;DHT22;40730;53.068;6.572;2022-12-24T00:53:50;6.70;99.90
54832;DHT22;40730;53.068;6.572;2022-12-24T00:56:16;6.70;99.90
54832;DHT22;40730;53.068;6.572;2022-12-24T00:58:42;6.80;99.90
54832;DHT22;40730;53.068;6.572;2022-12-24T01:01:07;6.70;99.90
54832;DHT22;40730;53.068;6.572;2022-12-24T01:03:33;6.70;99.90
54832;DHT22;40730;53.068;6.572;2022-12-24T01:06:11;6.70;99.90
54832;DHT22;40730;53.068;6.572;2022-12-24T01:08:37;6.70;99.90
54832;DHT22;40730;53.068;6.572;2022-12-24T01:11:04;6.70;99.90
54832;DHT22;40730;53.068;6.572;2022-12-24T01:13:30;6.70;99.90
54832;DHT22;40730;53.068;6.572;2022-12-24T01:15:55;6.70;99.90
54832;DHT22;40730;53.068;6.572;2022-12-24T01:18:22;6.70;99.90
54832;DHT22;40730;53.068;6.572;2022-12-24T01:21:02;6.70;99.90
54832;DHT22;40730;53.068;6.572;2022-12-24T01:23:29;6.70;99.90
54832;DHT22;40730;53.068;6.572;2022-12-24T01:25:54;6.70;99.90
54832;DHT22;40730;53.068;6.572;2022-12-24T01:28:23;6.70;99.90
54832;DHT22;40730;53.068;6.572;2022-12-24T01:30:49;6.70;99.90
54832;DHT22;40730;53.068;6.572;2022-12-24T01:33:14;6.70;99.90
54832;DHT22;40730;53.068;6.572;2022-12-24T01:35:41;6.70;99.90
54832;DHT22;40730;53.068;6.572;2022-12-24T01:38:06;6.70;99.90
54832;DHT22;40730;53.068;6.572;2022-12-24T01:40:32;6.70;99.90
54832;DHT22;40730;53.068;6.572;2022-12-24T01:43:18;6.70;99.90
54832;DHT22;40730;53.068;6.572;2022-12-24T01:48:44;6.80;99.90
54832;DHT22;40730;53.068;6.572;2022-12-24T01:51:15;6.70;99.90
54832;DHT22;40730;53.068;6.572;2022-12-24T01:53:44;6.70;99.90
54832;DHT22;40730;53.068;6.572;2022-12-24T01:56:12;7.30;99.90
54832;DHT22;40730;53.068;6.572;2022-12-24T01:58:40;6.70;99.90
54832;DHT22;40730;53.068;6.572;2022-12-24T02:01:07;6.70;99.90
54832;DHT22;40730;53.068;6.572;2022-12-24T02:03:33;6.70;99.90
54832;DHT22;40730;53.068;6.572;2022-12-24T02:05:59;6.70;99.90
54832;DHT22;40730;53.068;6.572;2022-12-24T02:08:25;6.70;99.90
54832;DHT22;40730;53.068;6.572;2022-12-24T02:11:09;6.70;99.90
54832;DHT22;40730;53.068;6.572;2022-12-24T02:13:34;6.70;99.90
54832;DHT22;40730;53.068;6.572;2022-12-24T02:16:29;6.70;99.90
54832;DHT22;40730;53.068;6.572;2022-12-24T02:19:34;6.70;99.90
54832;DHT22;40730;53.068;6.572;2022-12-24T02:30:33;6.80;99.90
54832;DHT22;40730;53.068;6.572;2022-12-24T02:36:05;6.80;99.90
54832;DHT22;40730;53.068;6.572;2022-12-24T02:38:46;6.90;99.90
54832;DHT22;40730;53.068;6.572;2022-12-24T02:41:25;6.90;99.90
54832;DHT22;40730;53.068;6.572;2022-12-24T02:44:14;7.00;99.90
54832;DHT22;40730;53.068;6.572;2022-12-24T02:46:41;7.00;99.90
54832;DHT22;40730;53.068;6.572;2022-12-24T02:49:06;7.50;99.90
54832;DHT22;40730;53.068;6.572;2022-12-24T02:51:32;7.00;99.90
54832;DHT22;40730;53.068;6.572;2022-12-24T02:53:57;7.00;99.90
54832;DHT22;40730;53.068;6.572;2022-12-24T03:02:13;7.20;99.90
54832;DHT22;40730;53.068;6.572;2022-12-24T03:08:15;7.40;99.90
54832;DHT22;40730;53.068;6.572;2022-12-24T03:13:18;7.60;99.90
54832;DHT22;40730;53.068;6.572;2022-12-24T03:15:46;7.70;99.90
54832;DHT22;40730;53.068;6.572;2022-12-24T03:18:14;7.70;99.90
54832;DHT22;40730;53.068;6.572;2022-12-24T03:20:44;7.70;99.90
54832;DHT22;40730;53.068;6.572;2022-12-24T03:23:10;7.80;99.90
54832;DHT22;40730;53.068;6.572;2022-12-24T03:25:40;7.90;99.90
54832;DHT22;40730;53.068;6.572;2022-12-24T03:28:08;8.00;99.90
54832;DHT22;40730;53.068;6.572;2022-12-24T03:30:34;8.00;99.90
54832;DHT22;40730;53.068;6.572;2022-12-24T03:33:03;8.00;99.90
54832;DHT22;40730;53.068;6.572;2022-12-24T03:35:28;8.00;99.90
54832;DHT22;40730;53.068;6.572;2022-12-24T03:37:54;8.10;99.90
54832;DHT22;40730;53.068;6.572;2022-12-24T03:40:20;8.10;99.90
54832;DHT22;40730;53.068;6.572;2022-12-24T03:42:45;8.20;99.90
54832;DHT22;40730;53.068;6.572;2022-12-24T03:45:11;8.20;99.90
54832;DHT22;40730;53.068;6.572;2022-12-24T03:47:36;8.30;99.90
54832;DHT22;40730;53.068;6.572;2022-12-24T03:50:02;8.20;99.90
54832;DHT22;40730;53.068;6.572;2022-12-24T03:52:28;8.30;99.90
54832;DHT22;40730;53.068;6.572;2022-12-24T03:54:53;8.30;99.90
54832;DHT22;40730;53.068;6.572;2022-12-24T03:57:19;8.30;99.90
54832;DHT22;40730;53.068;6.572;2022-12-24T03:59:44;8.30;99.90
54832;DHT22;40730;53.068;6.572;2022-12-24T04:02:10;8.30;99.90
54832;DHT22;40730;53.068;6.572;2022-12-24T04:04:36;8.30;99.90
54832;DHT22;40730;53.068;6.572;2022-12-24T04:07:02;8.30;99.90
54832;DHT22;40730;53.068;6.572;2022-12-24T04:09:28;8.30;99.90
54832;DHT22;40730;53.068;6.572;2022-12-24T04:11:54;8.30;99.90
54832;DHT22;40730;53.068;6.572;2022-12-24T04:14:20;8.20;99.90
54832;DHT22;40730;53.068;6.572;2022-12-24T04:16:45;8.20;99.90
54832;DHT22;40730;53.068;6.572;2022-12-24T04:19:11;8.20;99.90
54832;DHT22;40730;53.068;6.572;2022-12-24T04:21:36;8.20;99.90
54832;DHT22;40730;53.068;6.572;2022-12-24T04:24:02;8.10;99.90
54832;DHT22;40730;53.068;6.572;2022-12-24T04:26:28;8.10;99.90
54832;DHT22;40730;53.068;6.572;2022-12-24T04:28:53;8.10;99.90
54832;DHT22;40730;53.068;6.572;2022-12-24T04:31:19;8.10;99.90
54832;DHT22;40730;53.068;6.572;2022-12-24T04:33:45;8.10;99.90
54832;DHT22;40730;53.068;6.572;2022-12-24T04:36:13;8.10;99.90
54832;DHT22;40730;53.068;6.572;2022-12-24T04:38:39;8.10;99.90
54832;DHT22;40730;53.068;6.572;2022-12-24T04:41:07;8.10;99.90
54832;DHT22;40730;53.068;6.572;2022-12-24T04:43:34;8.00;99.90
54832;DHT22;40730;53.068;6.572;2022-12-24T04:46:04;8.00;99.90
54832;DHT22;40730;53.068;6.572;2022-12-24T04:48:30;8.00;99.90
54832;DHT22;40730;53.068;6.572;2022-12-24T04:50:56;8.00;99.90
54832;DHT22;40730;53.068;6.572;2022-12-24T04:53:21;8.00;99.90
54832;DHT22;40730;53.068;6.572;2022-12-24T04:55:47;8.00;99.90
54832;DHT22;40730;53.068;6.572;2022-12-24T04:58:13;8.10;99.90
54832;DHT22;40730;53.068;6.572;2022-12-24T05:00:39;8.30;99.90
54832;DHT22;40730;53.068;6.572;2022-12-24T05:03:05;8.10;99.90
54832;DHT22;40730;53.068;6.572;2022-12-24T05:05:30;8.10;99.90
54832;DHT22;40730;53.068;6.572;2022-12-24T05:07:56;8.20;99.90
54832;DHT22;40730;53.068;6.572;2022-12-24T05:10:22;8.20;99.90
54832;DHT22;40730;53.068;6.572;2022-12-24T05:12:47;8.20;99.90
54832;DHT22;40730;53.068;6.572;2022-12-24T05:15:13;8.20;99.90
54832;DHT22;40730;53.068;6.572;2022-12-24T05:17:38;8.20;99.90
54832;DHT22;40730;53.068;6.572;2022-12-24T05:20:04;8.10;99.90
54832;DHT22;40730;53.068;6.572;2022-12-24T05:22:30;8.10;99.90
54832;DHT22;40730;53.068;6.572;2022-12-24T05:25:15;8.10;99.90
54832;DHT22;40730;53.068;6.572;2022-12-24T05:27:59;8.10;99.90
54832;DHT22;40730;53.068;6.572;2022-12-24T05:30:25;8.10;99.90
54832;DHT22;40730;53.068;6.572;2022-12-24T05:32:50;8.00;99.90
54832;DHT22;40730;53.068;6.572;2022-12-24T05:35:16;8.00;99.90
54832;DHT22;40730;53.068;6.572;2022-12-24T05:37:41;8.20;99.90
54832;DHT22;40730;53.068;6.572;2022-12-24T05:40:07;8.00;99.90
54832;DHT22;40730;53.068;6.572;2022-12-24T05:42:33;8.00;99.90
54832;DHT22;40730;53.068;6.572;2022-12-24T05:44:58;8.10;99.90
54832;DHT22;40730;53.068;6.572;2022-12-24T05:47:24;8.10;99.90
54832;DHT22;40730;53.068;6.572;2022-12-24T05:49:50;8.10;99.90
54832;DHT22;40730;53.068;6.572;2022-12-24T05:52:15;8.10;99.90
54832;DHT22;40730;53.068;6.572;2022-12-24T05:54:41;8.10;99.90
54832;DHT22;40730;53.068;6.572;2022-12-24T05:57:06;8.10;99.90
54832;DHT22;40730;53.068;6.572;2022-12-24T05:59:32;8.10;99.90
54832;DHT22;40730;53.068;6.572;2022-12-24T06:01:58;8.10;99.90
54832;DHT22;40730;53.068;6.572;2022-12-24T06:04:24;8.10;99.90
54832;DHT22;40730;53.068;6.572;2022-12-24T06:06:49;8.00;99.90
54832;DHT22;40730;53.068;6.572;2022-12-24T06:09:15;8.00;99.90
54832;DHT22;40730;53.068;6.572;2022-12-24T06:11:41;8.00;99.90
54832;DHT22;40730;53.068;6.572;2022-12-24T06:14:07;7.90;99.90
54832;DHT22;40730;53.068;6.572;2022-12-24T06:16:32;8.00;99.90
54832;DHT22;40730;53.068;6.572;2022-12-24T06:18:58;8.00;99.90
54832;DHT22;40730;53.068;6.572;2022-12-24T06:21:24;7.80;99.90
54832;DHT22;40730;53.068;6.572;2022-12-24T06:23:50;8.10;99.90
54832;DHT22;40730;53.068;6.572;2022-12-24T06:26:19;7.90;99.90
54832;DHT22;40730;53.068;6.572;2022-12-24T06:28:47;7.90;99.90
54832;DHT22;40730;53.068;6.572;2022-12-24T06:31:16;7.80;99.90
54832;DHT22;40730;53.068;6.572;2022-12-24T06:33:42;7.80;99.90
54832;DHT22;40730;53.068;6.572;2022-12-24T06:36:12;7.80;99.90
54832;DHT22;40730;53.068;6.572;2022-12-24T06:38:38;7.80;99.90
54832;DHT22;40730;53.068;6.572;2022-12-24T06:41:07;7.70;99.90
54832;DHT22;40730;53.068;6.572;2022-12-24T06:43:33;7.80;99.90
54832;DHT22;40730;53.068;6.572;2022-12-24T06:46:00;7.70;99.90
54832;DHT22;40730;53.068;6.572;2022-12-24T06:48:26;7.70;99.90
54832;DHT22;40730;53.068;6.572;2022-12-24T06:50:52;7.60;99.90
54832;DHT22;40730;53.068;6.572;2022-12-24T06:53:18;7.70;99.90
54832;DHT22;40730;53.068;6.572;2022-12-24T06:55:43;7.70;99.90
54832;DHT22;40730;53.068;6.572;2022-12-24T06:58:10;7.70;99.90
54832;DHT22;40730;53.068;6.572;2022-12-24T07:00:36;7.80;99.90
54832;DHT22;40730;53.068;6.572;2022-12-24T07:03:02;7.80;99.90
54832;DHT22;40730;53.068;6.572;2022-12-24T07:05:27;7.80;99.90
54832;DHT22;40730;53.068;6.572;2022-12-24T07:07:53;7.80;99.90
54832;DHT22;40730;53.068;6.572;2022-12-24T07:10:19;7.70;99.90
54832;DHT22;40730;53.068;6.572;2022-12-24T07:12:45;7.70;99.90
54832;DHT22;40730;53.068;6.572;2022-12-24T07:15:11;7.70;99.90
54832;DHT22;40730;53.068;6.572;2022-12-24T07:17:37;7.60;99.90
54832;DHT22;40730;53.068;6.572;2022-12-24T07:20:04;7.60;99.90
54832;DHT22;40730;53.068;6.572;2022-12-24T07:22:30;7.60;99.90
54832;DHT22;40730;53.068;6.572;2022-12-24T07:24:55;7.70;99.90
54832;DHT22;40730;53.068;6.572;2022-12-24T07:27:21;7.80;99.90
54832;DHT22;40730;53.068;6.572;2022-12-24T07:29:46;7.80;99.90
54832;DHT22;40730;53.068;6.572;2022-12-24T07:32:12;7.90;99.90
54832;DHT22;40730;53.068;6.572;2022-12-24T07:34:38;7.90;99.90
54832;DHT22;40730;53.068;6.572;2022-12-24T07:37:04;7.90;99.90
54832;DHT22;40730;53.068;6.572;2022-12-24T07:39:30;7.90;99.90
54832;DHT22;40730;53.068;6.572;2022-12-24T07:41:56;8.00;99.90
54832;DHT22;40730;53.068;6.572;2022-12-24T07:44:21;8.00;99.90
54832;DHT22;40730;53.068;6.572;2022-12-24T07:46:47;8.10;99.90
54832;DHT22;40730;53.068;6.572;2022-12-24T07:49:13;8.10;99.90
54832;DHT22;40730;53.068;6.572;2022-12-24T07:51:38;8.10;99.90
54832;DHT22;40730;53.068;6.572;2022-12-24T07:54:04;8.10;99.90
54832;DHT22;40730;53.068;6.572;2022-12-24T07:56:30;8.20;99.90
54832;DHT22;40730;53.068;6.572;2022-12-24T07:58:56;8.20;99.90
54832;DHT22;40730;53.068;6.572;2022-12-24T08:01:22;8.20;99.90
54832;DHT22;40730;53.068;6.572;2022-12-24T08:03:47;8.20;99.90
54832;DHT22;40730;53.068;6.572;2022-12-24T08:06:15;8.20;99.90
54832;DHT22;40730;53.068;6.572;2022-12-24T08:08:41;8.20;99.90
54832;DHT22;40730;53.068;6.572;2022-12-24T08:11:07;8.10;99.90
54832;DHT22;40730;53.068;6.572;2022-12-24T08:13:33;8.10;99.90
54832;DHT22;40730;53.068;6.572;2022-12-24T08:15:59;8.10;99.90
54832;DHT22;40730;53.068;6.572;2022-12-24T08:18:25;8.10;99.90
54832;DHT22;40730;53.068;6.572;2022-12-24T08:20:50;8.30;99.90
54832;DHT22;40730;53.068;6.572;2022-12-24T08:23:16;8.10;99.90
54832;DHT22;40730;53.068;6.572;2022-12-24T08:25:44;8.10;99.90
54832;DHT22;40730;53.068;6.572;2022-12-24T08:28:10;8.20;99.90
54832;DHT22;40730;53.068;6.572;2022-12-24T08:30:36;8.10;99.90
54832;DHT22;40730;53.068;6.572;2022-12-24T08:33:02;8.10;99.90
54832;DHT22;40730;53.068;6.572;2022-12-24T08:35:27;8.10;99.90
54832;DHT22;40730;53.068;6.572;2022-12-24T08:37:53;8.10;99.90
54832;DHT22;40730;53.068;6.572;2022-12-24T08:40:19;8.20;99.90
54832;DHT22;40730;53.068;6.572;2022-12-24T08:42:44;8.30;99.90
54832;DHT22;40730;53.068;6.572;2022-12-24T08:45:10;8.30;99.90
54832;DHT22;40730;53.068;6.572;2022-12-24T08:47:37;8.30;99.90
54832;DHT22;40730;53.068;6.572;2022-12-24T08:50:04;8.40;99.90
54832;DHT22;40730;53.068;6.572;2022-12-24T08:52:30;8.40;99.90
54832;DHT22;40730;53.068;6.572;2022-12-24T08:54:56;8.50;99.90
54832;DHT22;40730;53.068;6.572;2022-12-24T08:57:21;8.50;99.90
54832;DHT22;40730;53.068;6.572;2022-12-24T08:59:47;8.50;99.90
54832;DHT22;40730;53.068;6.572;2022-12-24T09:02:13;8.60;99.90
54832;DHT22;40730;53.068;6.572;2022-12-24T09:04:38;8.60;99.90
54832;DHT22;40730;53.068;6.572;2022-12-24T09:07:05;8.60;99.90
54832;DHT22;40730;53.068;6.572;2022-12-24T09:09:31;8.70;99.90
54832;DHT22;40730;53.068;6.572;2022-12-24T09:11:57;8.60;99.90
54832;DHT22;40730;53.068;6.572;2022-12-24T09:14:22;8.70;99.90
54832;DHT22;40730;53.068;6.572;2022-12-24T09:16:48;8.70;99.90
54832;DHT22;40730;53.068;6.572;2022-12-24T09:19:13;8.80;99.90
54832;DHT22;40730;53.068;6.572;2022-12-24T09:21:39;8.80;99.90
54832;DHT22;40730;53.068;6.572;2022-12-24T09:24:05;8.90;99.90
54832;DHT22;40730;53.068;6.572;2022-12-24T09:26:30;8.90;99.90
54832;DHT22;40730;53.068;6.572;2022-12-24T09:28:57;9.10;99.90
54832;DHT22;40730;53.068;6.572;2022-12-24T09:31:23;9.00;99.90
54832;DHT22;40730;53.068;6.572;2022-12-24T09:33:50;9.00;99.90
54832;DHT22;40730;53.068;6.572;2022-12-24T09:36:16;9.10;99.90
54832;DHT22;40730;53.068;6.572;2022-12-24T09:38:43;9.10;99.90
54832;DHT22;40730;53.068;6.572;2022-12-24T09:43:56;9.10;99.90
54832;DHT22;40730;53.068;6.572;2022-12-24T09:46:33;9.10;99.90
54832;DHT22;40730;53.068;6.572;2022-12-24T09:49:16;9.10;99.90
54832;DHT22;40730;53.068;6.572;2022-12-24T09:52:07;9.10;99.90
54832;DHT22;40730;53.068;6.572;2022-12-24T09:54:37;9.20;99.90
54832;DHT22;40730;53.068;6.572;2022-12-24T09:57:07;9.20;99.90
54832;DHT22;40730;53.068;6.572;2022-12-24T09:59:42;9.30;99.90
54832;DHT22;40730;53.068;6.572;2022-12-24T10:02:13;9.20;99.90
54832;DHT22;40730;53.068;6.572;2022-12-24T10:04:39;9.20;99.90
54832;DHT22;40730;53.068;6.572;2022-12-24T10:12:40;9.30;99.90
54832;DHT22;40730;53.068;6.572;2022-12-24T10:15:28;9.40;99.90
54832;DHT22;40730;53.068;6.572;2022-12-24T10:20:53;9.40;99.90
54832;DHT22;40730;53.068;6.572;2022-12-24T10:23:34;9.40;99.90
54832;DHT22;40730;53.068;6.572;2022-12-24T10:26:13;9.40;99.90
54832;DHT22;40730;53.068;6.572;2022-12-24T10:28:51;9.40;99.90
54832;DHT22;40730;53.068;6.572;2022-12-24T10:32:20;9.60;99.90
54832;DHT22;40730;53.068;6.572;2022-12-24T10:34:29;9.50;99.90
54832;DHT22;40730;53.068;6.572;2022-12-24T10:36:57;9.50;99.90
54832;DHT22;40730;53.068;6.572;2022-12-24T10:39:24;9.60;99.90
54832;DHT22;40730;53.068;6.572;2022-12-24T10:41:52;9.60;99.90
54832;DHT22;40730;53.068;6.572;2022-12-24T10:44:22;9.60;99.90
54832;DHT22;40730;53.068;6.572;2022-12-24T10:46:48;9.60;99.90
54832;DHT22;40730;53.068;6.572;2022-12-24T10:49:17;9.60;99.90
54832;DHT22;40730;53.068;6.572;2022-12-24T10:51:56;9.60;99.90
54832;DHT22;40730;53.068;6.572;2022-12-24T10:54:27;9.70;99.90
54832;DHT22;40730;53.068;6.572;2022-12-24T10:56:59;9.70;99.90
54832;DHT22;40730;53.068;6.572;2022-12-24T10:59:26;9.70;99.90
54832;DHT22;40730;53.068;6.572;2022-12-24T11:01:53;9.70;99.90
54832;DHT22;40730;53.068;6.572;2022-12-24T11:04:24;9.70;99.90
54832;DHT22;40730;53.068;6.572;2022-12-24T11:06:56;9.80;99.90
54832;DHT22;40730;53.068;6.572;2022-12-24T11:09:26;9.70;99.90
54832;DHT22;40730;53.068;6.572;2022-12-24T11:11:54;9.70;99.90
54832;DHT22;40730;53.068;6.572;2022-12-24T11:14:20;9.70;99.90
54832;DHT22;40730;53.068;6.572;2022-12-24T11:16:55;9.70;99.90
54832;DHT22;40730;53.068;6.572;2022-12-24T11:19:32;9.70;99.90
54832;DHT22;40730;53.068;6.572;2022-12-24T11:22:05;9.70;99.90
54832;DHT22;40730;53.068;6.572;2022-12-24T11:24:40;9.80;99.90
54832;DHT22;40730;53.068;6.572;2022-12-24T11:27:38;9.80;99.90
54832;DHT22;40730;53.068;6.572;2022-12-24T11:30:26;9.80;99.90
54832;DHT22;40730;53.068;6.572;2022-12-24T11:35:29;9.70;99.90
54832;DHT22;40730;53.068;6.572;2022-12-24T11:40:48;9.70;99.90
54832;DHT22;40730;53.068;6.572;2022-12-24T11:43:19;9.70;99.90
54832;DHT22;40730;53.068;6.572;2022-12-24T11:48:43;9.70;99.90
54832;DHT22;40730;53.068;6.572;2022-12-24T11:51:22;9.70;99.90
54832;DHT22;40730;53.068;6.572;2022-12-24T11:54:18;9.70;99.90
54832;DHT22;40730;53.068;6.572;2022-12-24T11:56:51;9.70;99.90
54832;DHT22;40730;53.068;6.572;2022-12-24T11:59:34;9.70;99.90
54832;DHT22;40730;53.068;6.572;2022-12-24T12:02:25;9.70;99.90
54832;DHT22;40730;53.068;6.572;2022-12-24T12:04:58;9.70;99.90
54832;DHT22;40730;53.068;6.572;2022-12-24T12:07:28;9.70;99.90
54832;DHT22;40730;53.068;6.572;2022-12-24T12:10:16;9.80;99.90
54832;DHT22;40730;53.068;6.572;2022-12-24T12:13:02;9.70;99.90
54832;DHT22;40730;53.068;6.572;2022-12-24T12:15:34;9.70;99.90
54832;DHT22;40730;53.068;6.572;2022-12-24T12:18:18;9.70;99.90
54832;DHT22;40730;53.068;6.572;2022-12-24T12:21:18;9.80;99.90
54832;DHT22;40730;53.068;6.572;2022-12-24T12:23:54;9.80;99.90
54832;DHT22;40730;53.068;6.572;2022-12-24T12:31:40;9.80;99.90
54832;DHT22;40730;53.068;6.572;2022-12-24T12:34:12;9.80;99.90
54832;DHT22;40730;53.068;6.572;2022-12-24T12:37:32;9.80;99.90
54832;DHT22;40730;53.068;6.572;2022-12-24T12:39:33;9.70;99.90
54832;DHT22;40730;53.068;6.572;2022-12-24T12:44:43;9.70;99.90
54832;DHT22;40730;53.068;6.572;2022-12-24T12:51:08;9.70;99.90
54832;DHT22;40730;53.068;6.572;2022-12-24T13:04:03;9.80;99.90
54832;DHT22;40730;53.068;6.572;2022-12-24T13:12:32;9.80;99.90
54832;DHT22;40730;53.068;6.572;2022-12-24T13:18:04;9.70;99.90
54832;DHT22;40730;53.068;6.572;2022-12-24T13:20:41;9.70;99.90
54832;DHT22;40730;53.068;6.572;2022-12-24T13:23:10;9.60;99.90
54832;DHT22;40730;53.068;6.572;2022-12-24T13:25:39;9.60;99.90
54832;DHT22;40730;53.068;6.572;2022-12-24T13:38:31;9.50;99.90
54832;DHT22;40730;53.068;6.572;2022-12-24T13:47:14;9.50;99.90
54832;DHT22;40730;53.068;6.572;2022-12-24T13:49:42;9.40;99.90
54832;DHT22;40730;53.068;6.572;2022-12-24T13:54:42;9.40;99.90
54832;DHT22;40730;53.068;6.572;2022-12-24T13:57:30;9.40;99.90
54832;DHT22;40730;53.068;6.572;2022-12-24T14:00:00;9.40;99.90
54832;DHT22;40730;53.068;6.572;2022-12-24T14:02:29;9.30;99.90
54832;DHT22;40730;53.068;6.572;2022-12-24T14:05:01;9.30;99.90
54832;DHT22;40730;53.068;6.572;2022-12-24T14:07:27;9.30;99.90
54832;DHT22;40730;53.068;6.572;2022-12-24T14:09:53;9.20;99.90
54832;DHT22;40730;53.068;6.572;2022-12-24T14:12:46;9.20;99.90
54832;DHT22;40730;53.068;6.572;2022-12-24T14:18:23;9.00;99.90
54832;DHT22;40730;53.068;6.572;2022-12-24T14:20:54;9.00;99.90
54832;DHT22;40730;53.068;6.572;2022-12-24T14:25:54;9.00;99.90
54832;DHT22;40730;53.068;6.572;2022-12-24T14:28:24;9.00;99.90
54832;DHT22;40730;53.068;6.572;2022-12-24T14:31:00;9.00;99.90
54832;DHT22;40730;53.068;6.572;2022-12-24T14:33:33;9.10;99.90
54832;DHT22;40730;53.068;6.572;2022-12-24T14:36:01;9.10;99.90
54832;DHT22;40730;53.068;6.572;2022-12-24T14:38:28;9.00;99.90
54832;DHT22;40730;53.068;6.572;2022-12-24T14:46:35;9.10;99.90
54832;DHT22;40730;53.068;6.572;2022-12-24T14:49:44;9.00;99.90
54832;DHT22;40730;53.068;6.572;2022-12-24T14:54:40;8.80;99.90
54832;DHT22;40730;53.068;6.572;2022-12-24T15:02:47;8.60;99.90
54832;DHT22;40730;53.068;6.572;2022-12-24T15:05:25;8.50;99.90
54832;DHT22;40730;53.068;6.572;2022-12-24T15:07:59;8.50;99.90
54832;DHT22;40730;53.068;6.572;2022-12-24T15:10:32;8.40;99.90
54832;DHT22;40730;53.068;6.572;2022-12-24T15:13:03;8.30;99.90
54832;DHT22;40730;53.068;6.572;2022-12-24T15:15:29;8.20;99.90
54832;DHT22;40730;53.068;6.572;2022-12-24T15:17:56;8.10;99.90
54832;DHT22;40730;53.068;6.572;2022-12-24T15:20:24;8.00;99.90
54832;DHT22;40730;53.068;6.572;2022-12-24T15:22:53;7.90;99.90
54832;DHT22;40730;53.068;6.572;2022-12-24T15:25:29;7.80;99.90
54832;DHT22;40730;53.068;6.572;2022-12-24T15:27:56;7.80;99.90
54832;DHT22;40730;53.068;6.572;2022-12-24T15:30:25;7.60;99.90
54832;DHT22;40730;53.068;6.572;2022-12-24T15:32:56;7.60;99.90
54832;DHT22;40730;53.068;6.572;2022-12-24T15:35:52;7.50;99.90
54832;DHT22;40730;53.068;6.572;2022-12-24T15:38:30;7.40;99.90
54832;DHT22;40730;53.068;6.572;2022-12-24T15:40:57;7.30;99.90
54832;DHT22;40730;53.068;6.572;2022-12-24T15:43:23;7.30;99.90
54832;DHT22;40730;53.068;6.572;2022-12-24T15:45:49;7.20;99.90
54832;DHT22;40730;53.068;6.572;2022-12-24T15:48:23;7.20;99.90
54832;DHT22;40730;53.068;6.572;2022-12-24T15:50:55;7.10;99.90
54832;DHT22;40730;53.068;6.572;2022-12-24T15:53:26;7.00;99.90
54832;DHT22;40730;53.068;6.572;2022-12-24T15:56:08;6.90;99.90
54832;DHT22;40730;53.068;6.572;2022-12-24T16:01:24;6.90;99.90
54832;DHT22;40730;53.068;6.572;2022-12-24T16:06:17;6.80;99.90
54832;DHT22;40730;53.068;6.572;2022-12-24T16:08:43;6.70;99.90
54832;DHT22;40730;53.068;6.572;2022-12-24T16:14:03;6.70;99.90
54832;DHT22;40730;53.068;6.572;2022-12-24T16:16:40;6.60;99.90
54832;DHT22;40730;53.068;6.572;2022-12-24T16:21:42;6.50;99.90
54832;DHT22;40730;53.068;6.572;2022-12-24T16:24:29;6.40;99.90
54832;DHT22;40730;53.068;6.572;2022-12-24T16:26:55;6.40;99.90
54832;DHT22;40730;53.068;6.572;2022-12-24T16:29:21;6.30;99.90
54832;DHT22;40730;53.068;6.572;2022-12-24T16:31:55;6.30;99.90
54832;DHT22;40730;53.068;6.572;2022-12-24T16:34:26;6.20;99.90
54832;DHT22;40730;53.068;6.572;2022-12-24T16:36:53;6.30;99.90
54832;DHT22;40730;53.068;6.572;2022-12-24T16:39:24;6.20;99.90
54832;DHT22;40730;53.068;6.572;2022-12-24T16:41:52;6.30;99.90
54832;DHT22;40730;53.068;6.572;2022-12-24T16:44:37;6.30;99.90
54832;DHT22;40730;53.068;6.572;2022-12-24T16:49:42;6.30;99.90
54832;DHT22;40730;53.068;6.572;2022-12-24T16:52:16;6.30;99.90
54832;DHT22;40730;53.068;6.572;2022-12-24T16:54:42;6.30;99.90
54832;DHT22;40730;53.068;6.572;2022-12-24T16:57:08;6.40;99.90
54832;DHT22;40730;53.068;6.572;2022-12-24T16:59:36;6.40;99.90
54832;DHT22;40730;53.068;6.572;2022-12-24T17:02:03;6.50;99.90
54832;DHT22;40730;53.068;6.572;2022-12-24T17:04:30;6.50;99.90
54832;DHT22;40730;53.068;6.572;2022-12-24T17:06:56;6.50;99.90
54832;DHT22;40730;53.068;6.572;2022-12-24T17:09:22;6.50;99.90
54832;DHT22;40730;53.068;6.572;2022-12-24T17:11:47;6.40;99.90
54832;DHT22;40730;53.068;6.572;2022-12-24T17:14:13;6.40;99.90
54832;DHT22;40730;53.068;6.572;2022-12-24T17:16:38;6.30;99.90
54832;DHT22;40730;53.068;6.572;2022-12-24T17:19:04;6.30;99.90
54832;DHT22;40730;53.068;6.572;2022-12-24T17:21:30;6.30;99.90
54832;DHT22;40730;53.068;6.572;2022-12-24T17:23:55;6.30;99.90
54832;DHT22;40730;53.068;6.572;2022-12-24T17:26:21;6.30;99.90
54832;DHT22;40730;53.068;6.572;2022-12-24T17:28:47;6.30;99.90
54832;DHT22;40730;53.068;6.572;2022-12-24T17:31:15;6.20;99.90
54832;DHT22;40730;53.068;6.572;2022-12-24T17:33:41;6.30;99.90
54832;DHT22;40730;53.068;6.572;2022-12-24T17:36:07;6.30;99.90
54832;DHT22;40730;53.068;6.572;2022-12-24T17:38:34;6.20;99.90
54832;DHT22;40730;53.068;6.572;2022-12-24T17:41:09;6.20;99.90
54832;DHT22;40730;53.068;6.572;2022-12-24T17:43:35;6.10;99.90
54832;DHT22;40730;53.068;6.572;2022-12-24T17:46:09;6.10;99.90
54832;DHT22;40730;53.068;6.572;2022-12-24T17:48:36;6.10;99.90
54832;DHT22;40730;53.068;6.572;2022-12-24T17:51:09;6.10;99.90
54832;DHT22;40730;53.068;6.572;2022-12-24T17:53:36;6.00;99.90
54832;DHT22;40730;53.068;6.572;2022-12-24T17:56:02;6.00;99.90
54832;DHT22;40730;53.068;6.572;2022-12-24T17:58:28;5.90;99.90
54832;DHT22;40730;53.068;6.572;2022-12-24T18:00:54;5.90;99.90
54832;DHT22;40730;53.068;6.572;2022-12-24T18:03:20;5.80;99.90
54832;DHT22;40730;53.068;6.572;2022-12-24T18:05:46;5.80;99.90